Terminal Aerodrome Forecast
Issued by NWS

Home | Current Version | Previous Version | Text Only | Print | Product List | Glossary On
Versions: 1 2 3 4 5 6 7 8 9 10 11 12
000
FTUS43 KGLD 141120
TAFMCK
TAF
KMCK 141120Z 1412/1512 10005KT 1/2SM FG OVC002
     FM141600 25005KT P6SM SCT003 OVC008
     FM141800 30012KT P6SM SCT015 SCT025
     FM141900 30020G30KT P6SM SCT025
     FM142100 32030G41KT P6SM SCT035
     FM150200 33021G30KT P6SM SKC
     FM150700 31011KT P6SM SKC=

USA.gov is the U.S. government's official web portal to all federal, state and local government web resources and services.